Time;durP1;ratioP1;P1;durP2;ratioP2;P2;SDS_P1;SDS_P2;PMS_P1;PMS_P2;Temp;Humidity;BMP_temperature;BMP_pressure;BME280_temperature;BME280_humidity;BME280_pressure;Samples;Min_cycle;Max_cycle;Signal;HPM_P1;HPM_P2
2022/01/20 00:02:10;;;;;;;12.10;4.43;;;7.50;99.90;;;;;;5069319;28;20589;-40
2022/01/20 00:04:52;;;;;;;12.43;3.90;;;7.50;99.90;;;;;;5069089;28;20427;-40
2022/01/20 00:23:07;;;;;;;13.30;3.80;;;7.40;99.90;;;;;;5069007;28;20450;-39
2022/01/20 00:25:56;;;;;;;15.40;4.23;;;7.20;99.90;;;;;;5069346;28;20496;-40
2022/01/20 00:26:32;;;;;;;12.70;3.87;;;6.90;99.90;;;;;;5060842;28;20448;-39
2022/01/20 00:29:00;;;;;;;13.07;3.80;;;7.00;99.90;;;;;;5063432;28;20519;-41
2022/01/20 00:34:11;;;;;;;12.80;4.27;;;6.90;99.90;;;;;;5069460;28;20453;-40
2022/01/20 00:39:22;;;;;;;13.13;3.80;;;6.90;99.90;;;;;;5068322;28;20431;-40
2022/01/20 00:41:47;;;;;;;17.20;4.47;;;6.50;99.90;;;;;;5061693;28;20529;-40
2022/01/20 00:44:13;;;;;;;21.60;5.10;;;6.50;99.90;;;;;;5065016;28;20423;-39
2022/01/20 00:46:39;;;;;;;20.00;7.00;;;6.60;99.90;;;;;;5069446;28;20267;-39
2022/01/20 00:49:04;;;;;;;20.60;5.57;;;6.60;99.90;;;;;;5069473;28;20189;-39
2022/01/20 00:51:31;;;;;;;16.77;5.53;;;6.60;99.90;;;;;;5068106;28;20189;-39
2022/01/20 00:53:56;;;;;;;18.27;6.40;;;6.30;99.90;;;;;;5069372;28;20177;-39
2022/01/20 00:56:22;;;;;;;15.00;5.27;;;6.40;99.90;;;;;;5068053;28;20458;-40
2022/01/20 00:58:48;;;;;;;13.30;4.70;;;6.30;99.90;;;;;;5066828;28;20679;-39
2022/01/20 01:01:14;;;;;;;14.07;5.50;;;6.30;99.90;;;;;;5068407;28;20209;-39
2022/01/20 01:03:40;;;;;;;19.43;5.17;;;6.50;99.90;;;;;;5068483;28;20627;-39
2022/01/20 01:06:32;;;;;;;21.10;7.20;;;6.40;99.90;;;;;;5068245;28;20520;-40
2022/01/20 01:08:58;;;;;;;21.27;4.80;;;6.40;99.90;;;;;;5068700;28;20197;-39
2022/01/20 01:11:25;;;;;;;18.70;5.40;;;6.30;99.90;;;;;;5062558;28;21018;-39
2022/01/20 01:13:51;;;;;;;21.53;5.10;;;6.30;99.90;;;;;;5066147;28;20177;-40
2022/01/20 01:16:20;;;;;;;14.07;4.90;;;6.20;99.90;;;;;;5068235;28;20822;-40
2022/01/20 01:21:43;;;;;;;16.10;5.80;;;6.20;99.90;;;;;;5067578;28;20977;-39
2022/01/20 01:24:09;;;;;;;20.97;5.70;;;6.20;99.90;;;;;;5068925;28;20455;-39
2022/01/20 01:26:35;;;;;;;19.20;5.40;;;6.30;99.90;;;;;;5061733;28;20708;-40
2022/01/20 01:29:08;;;;;;;15.50;6.50;;;6.20;99.90;;;;;;5062467;28;20565;-40
2022/01/20 01:31:39;;;;;;;14.30;4.97;;;6.30;99.90;;;;;;5066224;28;20430;-40
2022/01/20 01:34:11;;;;;;;23.73;5.40;;;6.30;99.90;;;;;;5068367;28;20776;-40
2022/01/20 01:36:51;;;;;;;17.47;5.47;;;6.30;99.90;;;;;;5067878;28;20522;-40
2022/01/20 01:39:18;;;;;;;20.10;5.07;;;6.40;99.90;;;;;;5068001;28;20572;-40
2022/01/20 01:41:44;;;;;;;16.70;5.70;;;6.10;99.90;;;;;;5061737;28;20474;-39
2022/01/20 01:44:12;;;;;;;16.30;5.00;;;6.00;99.90;;;;;;5063637;28;20471;-39
2022/01/20 01:46:38;;;;;;;21.83;4.93;;;6.20;99.90;;;;;;5068164;28;21008;-39
2022/01/20 01:49:05;;;;;;;16.67;5.73;;;6.00;99.90;;;;;;5067320;28;20435;-40
2022/01/20 01:51:31;;;;;;;15.30;4.73;;;6.30;99.90;;;;;;5067259;28;20480;-40
2022/01/20 01:53:57;;;;;;;14.87;4.83;;;6.30;99.90;;;;;;5067327;28;20431;-39
2022/01/20 01:56:23;;;;;;;16.60;4.57;;;6.10;99.90;;;;;;5064384;28;20292;-39
2022/01/20 01:58:49;;;;;;;19.33;5.50;;;6.20;99.90;;;;;;5061417;28;20275;-39
2022/01/20 02:01:14;;;;;;;23.27;4.73;;;6.30;99.90;;;;;;5067070;28;20588;-39
2022/01/20 02:03:57;;;;;;;15.27;4.70;;;6.30;99.90;;;;;;5067412;28;20477;-39
2022/01/20 02:19:28;;;;;;;18.13;5.00;;;6.10;99.90;;;;;;5066491;28;20423;-39
2022/01/20 02:21:56;;;;;;;18.33;5.63;;;6.20;99.90;;;;;;5066803;28;20589;-39
2022/01/20 02:24:22;;;;;;;13.30;4.80;;;6.40;99.90;;;;;;5067429;28;21344;-39
2022/01/20 02:26:49;;;;;;;13.90;4.57;;;6.10;99.90;;;;;;5061138;28;20439;-39
2022/01/20 02:29:15;;;;;;;16.93;3.87;;;6.10;99.90;;;;;;5059479;28;20420;-40
2022/01/20 02:31:42;;;;;;;14.10;4.97;;;6.30;99.90;;;;;;5066568;28;20434;-39
2022/01/20 02:34:12;;;;;;;12.90;4.23;;;6.10;99.90;;;;;;5067412;28;20443;-40
2022/01/20 02:36:41;;;;;;;13.73;3.87;;;6.00;99.90;;;;;;5067174;28;20463;-39
2022/01/20 02:47:17;;;;;;;15.23;4.43;;;5.70;99.90;;;;;;5067178;28;20427;-39
2022/01/20 02:49:42;;;;;;;10.50;3.60;;;5.80;99.90;;;;;;5065282;28;20941;-39
2022/01/20 02:52:08;;;;;;;23.00;5.60;;;5.90;99.90;;;;;;5066550;28;20435;-39
2022/01/20 02:54:35;;;;;;;22.07;4.90;;;5.90;99.90;;;;;;5065982;28;20193;-39
2022/01/20 02:57:01;;;;;;;22.13;4.30;;;5.80;99.90;;;;;;5062109;28;20213;-40
2022/01/20 02:59:28;;;;;;;12.90;4.37;;;5.60;99.90;;;;;;5059129;28;20836;-39
2022/01/20 03:01:53;;;;;;;19.37;4.97;;;5.60;99.90;;;;;;5068166;28;21159;-39
2022/01/20 03:04:23;;;;;;;16.20;4.50;;;5.50;99.90;;;;;;5071139;28;20534;-40
2022/01/20 03:06:49;;;;;;;10.33;3.97;;;5.70;99.90;;;;;;5070493;28;20196;-39
2022/01/20 03:09:15;;;;;;;12.30;4.03;;;5.70;99.90;;;;;;5071165;28;20431;-39
2022/01/20 03:11:41;;;;;;;11.27;3.50;;;5.60;99.90;;;;;;5069106;28;20254;-39
2022/01/20 03:14:06;;;;;;;19.00;4.70;;;5.70;99.90;;;;;;5060980;28;20192;-39
2022/01/20 03:16:32;;;;;;;15.77;4.23;;;5.60;99.90;;;;;;5070733;28;20189;-39
2022/01/20 03:18:58;;;;;;;9.50;3.90;;;5.50;99.90;;;;;;5070989;28;20185;-40
2022/01/20 03:21:23;;;;;;;14.20;3.80;;;5.70;99.90;;;;;;5069810;28;20286;-39
2022/01/20 03:23:49;;;;;;;13.70;4.30;;;5.60;99.90;;;;;;5057763;28;20197;-39
2022/01/20 03:26:15;;;;;;;10.70;3.30;;;5.70;99.90;;;;;;5069585;28;20189;-39
2022/01/20 03:28:41;;;;;;;13.20;3.63;;;5.60;99.90;;;;;;5063549;28;20211;-39
2022/01/20 03:31:06;;;;;;;14.80;4.33;;;5.70;99.90;;;;;;5069812;28;20638;-41
2022/01/20 03:33:32;;;;;;;13.87;3.37;;;5.60;99.90;;;;;;5070327;28;20217;-40
2022/01/20 03:35:58;;;;;;;13.67;4.83;;;5.50;99.90;;;;;;5068937;28;20216;-39
2022/01/20 03:38:24;;;;;;;9.67;3.10;;;5.80;99.90;;;;;;5070434;28;20454;-39
2022/01/20 03:40:50;;;;;;;13.20;2.90;;;5.50;99.90;;;;;;5069718;28;20620;-39
2022/01/20 03:43:16;;;;;;;12.40;3.20;;;5.60;99.90;;;;;;5060957;28;20910;-40
2022/01/20 03:45:46;;;;;;;9.83;3.80;;;5.60;99.90;;;;;;5065719;28;20427;-39
2022/01/20 03:48:12;;;;;;;11.03;3.40;;;5.60;99.90;;;;;;5070254;28;20754;-39
2022/01/20 03:53:23;;;;;;;16.13;3.50;;;5.40;99.90;;;;;;5070075;28;20185;-39
2022/01/20 03:55:49;;;;;;;12.87;3.07;;;5.50;99.90;;;;;;5069948;28;20826;-39
2022/01/20 03:58:15;;;;;;;13.33;2.20;;;5.50;99.90;;;;;;5058171;28;20440;-39
2022/01/20 04:00:41;;;;;;;10.70;2.67;;;5.50;99.90;;;;;;5068951;28;20716;-39
2022/01/20 04:03:07;;;;;;;7.40;2.70;;;5.30;99.90;;;;;;5069770;28;20514;-40
2022/01/20 04:05:34;;;;;;;6.50;2.27;;;5.30;99.90;;;;;;5085566;28;20606;-39
2022/01/20 04:07:59;;;;;;;11.93;3.10;;;5.40;99.90;;;;;;5070284;28;20182;-40
2022/01/20 04:10:25;;;;;;;9.67;2.23;;;5.40;99.90;;;;;;5068124;28;20435;-39
2022/01/20 04:12:51;;;;;;;11.33;3.30;;;5.40;99.90;;;;;;5062657;28;20280;-39
2022/01/20 04:15:18;;;;;;;14.27;3.57;;;5.40;99.90;;;;;;5067210;28;20197;-39
2022/01/20 04:17:50;;;;;;;17.27;4.43;;;5.10;99.90;;;;;;5069546;28;20203;-40
2022/01/20 04:20:16;;;;;;;16.40;3.97;;;5.20;99.90;;;;;;5069273;28;20889;-39
2022/01/20 04:22:42;;;;;;;8.50;3.40;;;5.40;99.90;;;;;;5069424;28;20573;-39
2022/01/20 04:25:08;;;;;;;16.93;3.80;;;5.40;99.90;;;;;;5068327;28;20276;-40
2022/01/20 04:27:33;;;;;;;11.73;3.60;;;5.20;99.90;;;;;;5063983;28;20196;-40
2022/01/20 04:29:59;;;;;;;10.60;3.23;;;5.40;99.90;;;;;;5065574;28;20997;-39
2022/01/20 04:32:25;;;;;;;11.30;3.60;;;5.30;99.90;;;;;;5068898;28;20363;-40
2022/01/20 04:34:51;;;;;;;9.93;4.43;;;5.20;99.90;;;;;;5069483;28;20196;-39
2022/01/20 04:37:17;;;;;;;12.00;4.20;;;5.40;99.90;;;;;;5069410;28;20204;-39
2022/01/20 04:39:44;;;;;;;6.80;2.50;;;5.50;99.90;;;;;;5068831;28;20431;-39
2022/01/20 04:42:10;;;;;;;7.10;2.70;;;5.50;99.90;;;;;;5068160;28;20208;-39
2022/01/20 04:44:46;;;;;;;10.50;3.20;;;5.60;99.90;;;;;;5062666;28;20415;-39
2022/01/20 04:47:54;;;;;;;9.07;2.87;;;5.30;99.90;;;;;;5068805;28;20509;-39
2022/01/20 04:58:18;;;;;;;8.63;3.00;;;5.40;99.90;;;;;;5059159;28;20446;-39
2022/01/20 05:00:44;;;;;;;13.40;3.70;;;5.50;99.90;;;;;;5068138;28;20419;-39
2022/01/20 05:03:09;;;;;;;9.80;3.70;;;5.60;99.90;;;;;;5068679;28;20295;-41
2022/01/20 05:05:35;;;;;;;10.70;3.83;;;5.40;99.90;;;;;;5068993;28;20203;-39
2022/01/20 05:08:01;;;;;;;10.37;3.20;;;5.30;99.90;;;;;;5068912;28;20246;-39
2022/01/20 05:10:30;;;;;;;13.83;3.13;;;5.40;99.90;;;;;;5068546;28;20247;-39
2022/01/20 05:15:23;;;;;;;10.57;3.80;;;5.20;99.90;;;;;;5058451;28;20480;-39
2022/01/20 05:17:49;;;;;;;11.00;3.20;;;5.40;99.90;;;;;;5068680;28;21059;-39
2022/01/20 05:20:15;;;;;;;9.17;2.70;;;5.30;99.90;;;;;;5067800;28;20438;-39
2022/01/20 05:22:41;;;;;;;11.87;3.77;;;5.30;99.90;;;;;;5079202;28;20470;-39
2022/01/20 05:25:07;;;;;;;7.17;2.60;;;5.40;99.90;;;;;;5078292;28;20434;-39
2022/01/20 05:27:33;;;;;;;9.23;2.87;;;5.30;99.90;;;;;;5056987;28;20216;-39
2022/01/20 05:29:59;;;;;;;6.73;2.60;;;5.50;99.90;;;;;;5055889;28;20998;-39
2022/01/20 05:32:25;;;;;;;11.40;3.70;;;5.20;99.90;;;;;;5068119;28;20432;-40
2022/01/20 05:34:51;;;;;;;6.40;2.90;;;5.20;99.90;;;;;;5067731;28;20200;-39
2022/01/20 05:37:17;;;;;;;6.20;2.40;;;5.10;99.90;;;;;;5068279;28;20431;-39
2022/01/20 05:39:43;;;;;;;8.33;3.30;;;5.20;99.90;;;;;;5067432;28;20449;-39
2022/01/20 05:42:09;;;;;;;9.67;3.50;;;5.00;99.90;;;;;;5062045;28;20255;-39
2022/01/20 05:44:35;;;;;;;8.70;2.50;;;5.20;99.90;;;;;;5056287;28;20482;-39
2022/01/20 05:47:09;;;;;;;5.27;2.50;;;4.90;99.90;;;;;;5065812;28;20518;-39
2022/01/20 05:49:34;;;;;;;7.33;3.10;;;5.00;99.90;;;;;;5067214;28;20634;-39
2022/01/20 05:52:01;;;;;;;9.57;3.30;;;5.20;99.90;;;;;;5067912;28;20518;-39
2022/01/20 05:54:26;;;;;;;3.47;3.17;;;4.90;99.90;;;;;;5067582;28;20439;-39
2022/01/20 05:56:52;;;;;;;4.13;2.73;;;5.00;99.90;;;;;;5068173;28;20461;-40
2022/01/20 05:59:18;;;;;;;4.20;2.47;;;4.80;99.90;;;;;;5081912;28;20724;-39
2022/01/20 06:01:51;;;;;;;4.10;2.70;;;5.10;99.90;;;;;;5067119;28;20205;-39
2022/01/20 06:04:17;;;;;;;8.67;3.03;;;5.00;99.90;;;;;;5067128;28;20185;-40
2022/01/20 06:06:44;;;;;;;5.60;2.03;;;5.00;99.90;;;;;;5067714;28;20964;-39
2022/01/20 06:09:10;;;;;;;5.30;2.17;;;4.70;99.90;;;;;;5067706;28;20931;-40
2022/01/20 06:11:36;;;;;;;5.40;2.20;;;4.80;99.90;;;;;;5065239;28;20524;-40
2022/01/20 06:14:05;;;;;;;8.20;2.87;;;4.90;99.90;;;;;;5060549;28;20539;-40
2022/01/20 06:16:31;;;;;;;5.97;2.50;;;4.90;99.90;;;;;;5067014;28;20462;-39
2022/01/20 06:18:57;;;;;;;2.93;1.80;;;4.70;99.90;;;;;;5063864;28;20431;-40
2022/01/20 06:21:23;;;;;;;5.10;2.07;;;4.80;99.90;;;;;;5066954;28;20462;-39
2022/01/20 06:23:50;;;;;;;4.93;2.17;;;4.80;99.90;;;;;;5067411;28;20618;-39
2022/01/20 06:26:15;;;;;;;8.50;2.30;;;4.80;99.90;;;;;;5065102;28;20184;-39
2022/01/20 06:28:41;;;;;;;9.40;2.47;;;4.90;99.90;;;;;;5060860;28;20485;-39
2022/01/20 06:31:08;;;;;;;11.43;3.10;;;5.10;99.90;;;;;;5061317;28;20710;-39
2022/01/20 06:33:34;;;;;;;4.97;2.10;;;5.20;99.90;;;;;;5067176;28;20847;-39
2022/01/20 06:36:01;;;;;;;8.47;2.63;;;5.00;99.90;;;;;;5062709;28;20436;-40
2022/01/20 06:38:27;;;;;;;10.57;3.53;;;5.00;99.90;;;;;;5066695;28;20433;-40
2022/01/20 06:40:52;;;;;;;6.03;2.43;;;5.10;99.90;;;;;;5066485;28;20494;-39
2022/01/20 06:43:18;;;;;;;6.60;2.67;;;4.80;99.90;;;;;;5063032;28;21364;-39
2022/01/20 06:45:44;;;;;;;5.20;2.60;;;5.20;99.90;;;;;;5061301;28;20201;-39
2022/01/20 06:48:10;;;;;;;4.73;2.10;;;5.20;99.90;;;;;;5063624;28;20216;-39
2022/01/20 06:50:36;;;;;;;6.13;1.93;;;5.00;99.90;;;;;;5065927;28;20177;-39
2022/01/20 06:53:02;;;;;;;16.27;3.97;;;5.40;99.90;;;;;;5061249;28;20446;-40
2022/01/20 06:55:27;;;;;;;8.90;2.00;;;5.00;99.90;;;;;;5068392;28;20288;-41
2022/01/20 06:57:53;;;;;;;4.23;1.60;;;5.30;99.90;;;;;;5066560;28;20438;-40
2022/01/20 07:00:23;;;;;;;7.43;1.50;;;5.00;99.90;;;;;;5055782;28;20192;-39
2022/01/20 07:02:49;;;;;;;12.90;2.10;;;5.30;99.90;;;;;;5064038;28;20767;-39
2022/01/20 07:05:17;;;;;;;6.43;1.73;;;5.00;99.90;;;;;;5065418;28;20455;-39
2022/01/20 07:07:44;;;;;;;9.73;1.77;;;5.00;99.90;;;;;;5065256;28;20454;-39
2022/01/20 07:10:11;;;;;;;10.33;2.40;;;5.30;99.90;;;;;;5080755;28;20810;-40
2022/01/20 07:12:38;;;;;;;9.53;2.50;;;5.20;99.90;;;;;;5081809;28;20434;-40
2022/01/20 07:15:04;;;;;;;12.03;2.40;;;5.40;99.90;;;;;;5057954;28;20774;-40
2022/01/20 07:17:30;;;;;;;7.13;1.80;;;5.40;99.90;;;;;;5066899;28;20485;-40
2022/01/20 07:19:56;;;;;;;10.90;2.63;;;5.30;99.90;;;;;;5066439;28;20436;-43
2022/01/20 07:22:22;;;;;;;8.60;2.47;;;5.10;99.90;;;;;;5066714;28;20213;-39
2022/01/20 07:24:48;;;;;;;13.03;4.03;;;4.90;99.90;;;;;;5066727;28;20198;-40
2022/01/20 07:27:14;;;;;;;12.80;2.63;;;4.90;99.90;;;;;;5065130;28;20427;-39
2022/01/20 07:29:40;;;;;;;7.97;2.70;;;4.80;99.90;;;;;;5056482;28;20398;-40
2022/01/20 07:32:07;;;;;;;9.00;2.20;;;4.90;99.90;;;;;;5066818;28;20880;-39
2022/01/20 07:34:36;;;;;;;10.17;3.03;;;4.70;99.90;;;;;;5066301;28;20342;-39
2022/01/20 07:37:03;;;;;;;11.27;1.83;;;4.80;99.90;;;;;;5066887;28;20688;-39
2022/01/20 07:39:28;;;;;;;11.47;2.43;;;5.10;99.90;;;;;;5066484;28;20427;-39
2022/01/20 07:41:54;;;;;;;9.50;2.70;;;5.00;99.90;;;;;;5066242;28;20455;-39
2022/01/20 07:44:20;;;;;;;8.03;2.50;;;5.00;99.90;;;;;;5060125;28;20719;-39
2022/01/20 07:46:47;;;;;;;9.30;2.60;;;4.80;99.90;;;;;;5059931;28;20327;-39
2022/01/20 07:49:13;;;;;;;8.40;2.23;;;4.60;99.90;;;;;;5070007;28;20446;-39
2022/01/20 07:51:39;;;;;;;7.43;2.30;;;4.90;99.90;;;;;;5071701;28;20470;-39
2022/01/20 07:54:05;;;;;;;11.90;2.00;;;4.70;99.90;;;;;;5069806;28;20463;-39
2022/01/20 07:56:31;;;;;;;12.50;2.27;;;4.70;99.90;;;;;;5070006;28;20671;-40
2022/01/20 07:58:56;;;;;;;10.03;2.17;;;4.80;99.90;;;;;;5066099;28;20205;-39
2022/01/20 08:01:26;;;;;;;7.27;1.57;;;4.80;99.90;;;;;;5060694;28;20598;-40
2022/01/20 08:03:52;;;;;;;10.80;2.20;;;4.60;99.90;;;;;;5069917;28;20189;-40
2022/01/20 08:06:20;;;;;;;10.13;1.87;;;4.80;99.90;;;;;;5070004;28;20438;-40
2022/01/20 08:08:46;;;;;;;7.53;2.33;;;4.90;99.90;;;;;;5068468;28;20434;-39
2022/01/20 08:11:13;;;;;;;6.33;1.67;;;4.80;99.90;;;;;;5067167;28;20805;-40
2022/01/20 08:13:38;;;;;;;5.33;2.40;;;5.10;99.90;;;;;;5072870;28;20430;-39
2022/01/20 08:16:04;;;;;;;9.10;2.40;;;5.20;99.90;;;;;;5062782;28;20975;-40
2022/01/20 08:18:30;;;;;;;8.30;1.90;;;5.20;99.90;;;;;;5069947;28;20189;-39
2022/01/20 08:20:55;;;;;;;15.67;2.73;;;4.90;99.90;;;;;;5069131;28;20435;-39
2022/01/20 08:23:22;;;;;;;11.30;3.20;;;4.70;99.90;;;;;;5069411;28;20181;-39
2022/01/20 08:25:48;;;;;;;10.50;2.90;;;4.90;99.90;;;;;;5069729;28;20256;-39
2022/01/20 08:28:14;;;;;;;6.60;2.10;;;4.70;99.90;;;;;;5068397;28;20426;-40
2022/01/20 08:30:41;;;;;;;6.67;2.67;;;4.70;99.90;;;;;;5059852;28;20427;-39
2022/01/20 08:33:07;;;;;;;8.63;2.77;;;5.00;99.90;;;;;;5069113;28;20453;-39
2022/01/20 08:35:33;;;;;;;10.27;2.30;;;5.10;99.90;;;;;;5069582;28;20505;-39
2022/01/20 08:38:00;;;;;;;14.57;2.67;;;5.20;99.90;;;;;;5068874;28;20431;-40
2022/01/20 08:40:27;;;;;;;8.53;2.70;;;5.60;99.90;;;;;;5068956;28;20431;-39
2022/01/20 08:42:54;;;;;;;12.63;2.93;;;5.50;99.90;;;;;;5073227;28;20852;-40
2022/01/20 08:45:24;;;;;;;9.27;2.27;;;5.50;99.90;;;;;;5059431;28;20432;-41
2022/01/20 08:47:52;;;;;;;6.17;2.50;;;5.40;99.90;;;;;;5068967;28;20503;-39
2022/01/20 08:50:19;;;;;;;5.73;2.10;;;5.40;99.90;;;;;;5068661;28;20500;-40
2022/01/20 08:52:45;;;;;;;8.80;2.47;;;5.30;99.90;;;;;;5069361;28;20658;-39
2022/01/20 08:55:11;;;;;;;6.60;2.60;;;5.30;99.90;;;;;;5081593;28;20921;-39
2022/01/20 08:57:37;;;;;;;17.00;2.50;;;5.00;99.90;;;;;;5088952;28;20446;-39
2022/01/20 09:00:05;;;;;;;7.00;2.40;;;4.90;99.90;;;;;;5074164;28;20213;-40
2022/01/20 09:02:31;;;;;;;20.30;2.93;;;5.10;99.90;;;;;;5068971;28;20212;-41
2022/01/20 09:04:58;;;;;;;7.53;2.30;;;4.90;99.90;;;;;;5070322;28;20481;-39
2022/01/20 09:07:24;;;;;;;9.07;2.80;;;4.70;99.90;;;;;;5068466;28;20193;-41
2022/01/20 09:09:50;;;;;;;4.70;1.77;;;4.90;99.90;;;;;;5080230;28;20449;-40
2022/01/20 09:17:40;;;;;;;6.90;2.90;;;4.60;99.90;;;;;;5067920;28;20423;-40
2022/01/20 09:20:06;;;;;;;8.70;2.50;;;4.80;99.90;;;;;;5067798;28;20433;-39
2022/01/20 09:22:32;;;;;;;6.07;1.80;;;4.90;99.90;;;;;;5077378;28;20572;-40
2022/01/20 09:24:58;;;;;;;7.50;1.77;;;4.60;99.90;;;;;;5078795;28;20424;-40
2022/01/20 09:27:24;;;;;;;6.40;2.00;;;4.80;99.90;;;;;;5058316;28;20522;-40
2022/01/20 09:29:49;;;;;;;7.80;2.43;;;4.70;99.90;;;;;;5060465;28;20564;-40
2022/01/20 09:32:17;;;;;;;7.53;2.20;;;4.90;99.90;;;;;;5056609;28;20272;-39
2022/01/20 09:34:43;;;;;;;7.93;1.93;;;5.00;99.90;;;;;;5063132;28;20185;-40
2022/01/20 09:37:09;;;;;;;11.23;2.17;;;4.90;99.90;;;;;;5068425;28;20485;-42
2022/01/20 09:39:37;;;;;;;6.27;3.00;;;5.20;99.90;;;;;;5074239;28;20517;-40
2022/01/20 09:42:04;;;;;;;5.37;1.93;;;4.90;99.90;;;;;;5088432;28;20544;-39
2022/01/20 09:44:30;;;;;;;8.90;2.03;;;5.00;99.90;;;;;;5085533;28;20419;-40
2022/01/20 09:46:56;;;;;;;6.10;1.83;;;5.00;99.90;;;;;;5059797;28;20431;-40
2022/01/20 09:49:21;;;;;;;5.47;2.10;;;4.90;99.90;;;;;;5065431;28;20211;-39
2022/01/20 09:51:47;;;;;;;10.23;2.63;;;4.80;99.90;;;;;;5067105;28;20185;-41
2022/01/20 09:54:13;;;;;;;6.47;1.90;;;4.70;99.90;;;;;;5067779;28;20709;-40
2022/01/20 09:56:41;;;;;;;6.73;2.20;;;5.00;99.90;;;;;;5067903;28;20439;-39
2022/01/20 09:59:07;;;;;;;9.43;2.37;;;4.90;99.90;;;;;;5067535;28;20543;-39
2022/01/20 10:01:46;;;;;;;8.10;2.50;;;5.00;99.90;;;;;;5053146;28;20566;-41
2022/01/20 10:04:41;;;;;;;11.33;1.80;;;5.00;99.90;;;;;;5066892;28;20451;-42
2022/01/20 10:07:09;;;;;;;11.90;3.20;;;4.90;99.90;;;;;;5040960;28;20419;-42
2022/01/20 10:09:39;;;;;;;3.80;1.80;;;5.10;99.90;;;;;;5066731;28;20423;-40
2022/01/20 10:12:07;;;;;;;9.40;2.40;;;4.70;99.90;;;;;;5071669;28;20796;-42
2022/01/20 10:14:48;;;;;;;8.13;2.53;;;4.90;99.90;;;;;;5087626;28;20422;-40
2022/01/20 10:17:22;;;;;;;9.10;2.07;;;5.10;99.90;;;;;;5058567;28;20603;-39
2022/01/20 10:19:56;;;;;;;8.43;2.10;;;5.00;99.90;;;;;;5060770;28;20423;-40
2022/01/20 10:22:23;;;;;;;11.27;3.00;;;5.30;99.90;;;;;;5067191;28;20454;-40
2022/01/20 10:25:05;;;;;;;7.87;3.17;;;4.90;99.90;;;;;;5067295;28;20519;-40
2022/01/20 10:27:34;;;;;;;17.13;2.70;;;5.00;99.90;;;;;;5066782;28;20476;-42
2022/01/20 10:30:08;;;;;;;6.40;2.53;;;5.00;99.90;;;;;;5063486;28;20991;-41
2022/01/20 10:32:42;;;;;;;13.30;3.60;;;4.70;99.90;;;;;;5063775;28;20423;-41
2022/01/20 10:35:11;;;;;;;10.80;2.83;;;5.00;99.90;;;;;;5062616;28;20422;-39
2022/01/20 10:37:39;;;;;;;10.97;3.30;;;4.90;99.90;;;;;;5067418;28;20423;-40
2022/01/20 10:40:11;;;;;;;8.57;2.50;;;5.10;99.90;;;;;;5066558;28;20431;-40
2022/01/20 10:42:42;;;;;;;6.80;2.77;;;5.10;99.90;;;;;;5067151;28;20465;-41
2022/01/20 10:45:18;;;;;;;13.23;3.00;;;5.20;99.90;;;;;;5064214;28;20427;-39
2022/01/20 10:47:51;;;;;;;7.20;2.20;;;5.00;99.90;;;;;;5061641;28;20460;-40
2022/01/20 10:50:27;;;;;;;5.53;1.87;;;5.00;99.90;;;;;;5066702;28;20411;-42
2022/01/20 10:52:53;;;;;;;6.03;2.10;;;5.10;99.90;;;;;;5066955;28;20462;-39
2022/01/20 10:55:28;;;;;;;4.63;1.90;;;5.20;99.90;;;;;;5066982;28;20538;-39
2022/01/20 10:57:56;;;;;;;5.00;1.73;;;5.00;99.90;;;;;;5066913;28;20435;-39
2022/01/20 11:00:25;;;;;;;8.20;2.10;;;4.80;99.90;;;;;;5063586;28;20467;-40
2022/01/20 11:02:57;;;;;;;6.30;1.80;;;4.80;99.90;;;;;;5059377;28;20463;-42
2022/01/20 11:05:25;;;;;;;8.93;2.13;;;5.20;99.90;;;;;;5065873;28;20427;-39
2022/01/20 11:07:51;;;;;;;7.70;2.30;;;5.40;99.90;;;;;;5066816;28;20427;-39
2022/01/20 11:10:19;;;;;;;5.40;2.10;;;5.50;99.90;;;;;;5064839;28;20647;-39
2022/01/20 11:12:45;;;;;;;8.07;1.97;;;5.70;99.90;;;;;;5077141;28;20849;-42
2022/01/20 11:15:15;;;;;;;8.33;2.47;;;5.70;99.90;;;;;;5083726;28;20473;-39
2022/01/20 11:17:42;;;;;;;9.10;2.40;;;5.70;99.90;;;;;;5060109;28;20433;-40
2022/01/20 11:20:08;;;;;;;5.40;2.13;;;5.50;99.90;;;;;;5066374;28;20688;-39
2022/01/20 11:22:35;;;;;;;7.23;2.00;;;5.50;99.90;;;;;;5068296;28;20490;-39
2022/01/20 11:25:08;;;;;;;3.83;2.07;;;5.30;99.90;;;;;;5070409;28;20423;-39
2022/01/20 11:27:40;;;;;;;8.63;2.67;;;5.40;99.90;;;;;;5069982;28;20429;-40
2022/01/20 11:30:33;;;;;;;9.10;2.17;;;5.50;99.90;;;;;;5069530;28;20448;-39
2022/01/20 11:33:07;;;;;;;8.87;2.90;;;5.40;99.90;;;;;;5067208;28;20550;-39
2022/01/20 11:35:56;;;;;;;8.07;2.47;;;5.30;99.90;;;;;;5070495;28;20997;-40
2022/01/20 11:38:35;;;;;;;5.03;2.27;;;5.50;99.90;;;;;;5057816;28;20427;-39
2022/01/20 11:41:02;;;;;;;6.23;1.60;;;5.70;99.90;;;;;;5069811;28;20783;-41
2022/01/20 11:43:34;;;;;;;10.93;2.13;;;5.60;99.90;;;;;;5070746;28;20439;-40
2022/01/20 11:46:13;;;;;;;8.23;2.20;;;5.80;99.90;;;;;;5063791;28;20446;-41
2022/01/20 11:49:00;;;;;;;7.83;1.97;;;5.80;99.90;;;;;;5069752;28;20435;-41
2022/01/20 11:51:42;;;;;;;10.43;2.63;;;5.80;99.90;;;;;;5066463;28;20920;-39
2022/01/20 11:54:09;;;;;;;6.53;2.30;;;5.90;99.90;;;;;;5070027;28;20427;-39
2022/01/20 11:56:39;;;;;;;4.90;1.80;;;5.70;99.90;;;;;;5070276;28;20451;-40
2022/01/20 11:59:07;;;;;;;7.03;2.03;;;5.50;99.90;;;;;;5070315;28;20780;-39
2022/01/20 12:01:47;;;;;;;12.53;2.63;;;5.60;99.90;;;;;;5057746;28;20471;-40
2022/01/20 12:04:13;;;;;;;10.40;2.33;;;5.60;99.90;;;;;;5065647;28;20433;-40
2022/01/20 12:06:45;;;;;;;11.77;2.20;;;5.40;99.90;;;;;;5069800;28;20778;-40
2022/01/20 12:09:12;;;;;;;7.77;2.27;;;5.40;99.90;;;;;;5070188;28;20435;-39
2022/01/20 12:11:39;;;;;;;7.83;3.20;;;5.20;99.90;;;;;;5070271;28;20438;-40
2022/01/20 12:14:06;;;;;;;10.23;3.30;;;5.40;99.90;;;;;;5090140;28;20559;-39
2022/01/20 12:16:34;;;;;;;7.30;2.67;;;5.40;99.90;;;;;;5069456;28;20464;-39
2022/01/20 12:19:02;;;;;;;12.27;2.70;;;5.50;99.90;;;;;;5063891;28;20956;-39
2022/01/20 12:21:31;;;;;;;10.10;3.70;;;5.10;99.90;;;;;;5068677;28;20451;-39
2022/01/20 12:23:58;;;;;;;4.80;1.80;;;4.90;99.90;;;;;;5069930;28;20807;-39
2022/01/20 12:26:24;;;;;;;8.43;2.83;;;5.00;99.90;;;;;;5068859;28;20605;-39
2022/01/20 12:29:09;;;;;;;9.10;2.77;;;5.30;99.90;;;;;;5069951;28;20431;-40
2022/01/20 12:31:53;;;;;;;8.90;2.80;;;5.20;99.90;;;;;;5061472;28;20982;-40
2022/01/20 12:34:20;;;;;;;10.90;3.27;;;5.70;99.90;;;;;;5065794;28;20439;-39
2022/01/20 12:36:53;;;;;;;9.10;3.37;;;5.30;99.90;;;;;;5069462;28;20514;-40
2022/01/20 12:39:28;;;;;;;16.50;3.10;;;5.50;99.90;;;;;;5069503;28;20550;-40
2022/01/20 12:41:59;;;;;;;10.33;2.97;;;5.50;99.90;;;;;;5068451;28;20589;-40
2022/01/20 12:44:46;;;;;;;7.70;2.80;;;5.50;99.90;;;;;;5069794;28;20854;-42
2022/01/20 12:47:12;;;;;;;8.03;2.40;;;5.80;99.90;;;;;;5056681;28;20440;-39
2022/01/20 12:49:38;;;;;;;5.50;3.20;;;5.70;99.90;;;;;;5068498;28;20439;-39
2022/01/20 12:52:06;;;;;;;5.57;2.67;;;5.80;99.90;;;;;;5068846;28;20434;-39
2022/01/20 12:54:34;;;;;;;10.37;2.40;;;5.80;99.90;;;;;;5069290;28;20435;-39
2022/01/20 12:57:05;;;;;;;5.03;2.23;;;5.60;99.90;;;;;;5068832;28;20454;-39
2022/01/20 12:59:32;;;;;;;7.37;2.40;;;5.60;99.90;;;;;;5069613;28;20568;-40
2022/01/20 13:02:01;;;;;;;9.33;2.57;;;5.70;99.90;;;;;;5060605;28;21032;-39
2022/01/20 13:04:29;;;;;;;7.73;2.00;;;5.70;99.90;;;;;;5069103;28;20450;-40
2022/01/20 13:06:59;;;;;;;9.93;2.80;;;5.50;99.90;;;;;;5068635;28;20844;-40
2022/01/20 13:09:46;;;;;;;12.07;2.10;;;5.70;99.90;;;;;;5068632;28;20672;-39
2022/01/20 13:12:14;;;;;;;12.40;2.43;;;5.70;99.90;;;;;;5073544;28;20430;-39
2022/01/20 13:14:51;;;;;;;6.90;2.40;;;5.60;99.90;;;;;;5088804;28;20773;-40
2022/01/20 13:17:22;;;;;;;9.70;2.07;;;5.80;99.90;;;;;;5063437;28;20524;-40
2022/01/20 13:19:49;;;;;;;8.70;2.57;;;5.70;99.90;;;;;;5065125;28;20443;-40
2022/01/20 13:22:24;;;;;;;5.87;2.10;;;5.80;99.90;;;;;;5068576;28;20494;-39
2022/01/20 13:24:51;;;;;;;7.00;2.37;;;5.90;99.90;;;;;;5068590;28;20459;-39
2022/01/20 13:27:17;;;;;;;8.73;2.50;;;6.00;99.90;;;;;;5067567;28;20430;-40
2022/01/20 13:29:49;;;;;;;8.63;1.83;;;5.70;99.90;;;;;;5067405;28;20836;-39
2022/01/20 13:32:16;;;;;;;10.13;2.40;;;5.60;99.90;;;;;;5060234;28;20474;-39
2022/01/20 13:35:01;;;;;;;11.27;2.57;;;5.70;99.90;;;;;;5067975;28;20437;-39
2022/01/20 13:37:30;;;;;;;4.40;1.93;;;5.70;99.90;;;;;;5061326;28;20556;-39
2022/01/20 13:39:56;;;;;;;6.40;2.20;;;5.70;99.90;;;;;;5067543;28;20442;-42
2022/01/20 13:45:13;;;;;;;6.63;1.97;;;5.70;99.90;;;;;;5067476;28;20462;-40
2022/01/20 13:47:48;;;;;;;7.20;2.00;;;5.80;99.90;;;;;;5055097;28;20436;-40
2022/01/20 13:50:19;;;;;;;5.97;1.93;;;5.80;99.90;;;;;;5067420;28;20786;-40
2022/01/20 13:52:45;;;;;;;6.30;2.63;;;5.90;99.90;;;;;;5067563;28;20981;-39
2022/01/20 13:55:24;;;;;;;8.53;2.40;;;5.90;99.90;;;;;;5067779;28;20431;-39
2022/01/20 13:57:51;;;;;;;11.77;3.70;;;5.70;99.90;;;;;;5055081;28;20185;-39
2022/01/20 14:00:20;;;;;;;8.37;2.40;;;5.70;99.90;;;;;;5067066;28;20825;-39
2022/01/20 14:02:48;;;;;;;5.17;2.43;;;5.60;99.90;;;;;;5055806;28;20463;-41
2022/01/20 14:05:16;;;;;;;8.37;2.33;;;5.40;99.90;;;;;;5067153;28;20467;-39